Latest Weather Observations for Wudinna Airport

IDS60801

Issued at 9:35 pm CDT Saturday 25 October 2014 (issued every 30 minutes, with the page automatically refreshed every 10 minutes)

About weather observations | Map of weather stations | Latest weather observations for SA | Other Formats
Station Details ID: 018083 Name: WUDINNA AERO Lat: -33.04 Lon: 135.45 Height: 86.4 m
Data from the previous 72 hours. | See also: Recent months at Wudinna Airport
Date/Time
CDT
Temp
°C
App
Temp
°C
Dew
Point
Rel
Hum
%
Delta-T
°C
Wind Press
QNH
hPa
Press
MSL
hPa
Rain
since 9 am
mm
Dir
 
Spd
km/h
Gust
km/h
Spd
kts
Gust
kts
25/09:30pm 19.6 18.5 8.6 49 5.8 WNW 4 7 2 4 1015.4 - 0.0
25/09:00pm 20.9 19.5 9.5 48 6.1 WSW 7 9 4 5 1015.4 1015.3 0.0
25/08:30pm 22.1 19.2 4.6 32 8.6 SW 9 13 5 7 1015.1 - 0.0
25/08:00pm 24.4 21.0 4.2 27 10.0 SSW 11 13 6 7 1014.8 - 0.0
25/07:30pm 26.9 22.7 4.0 23 11.5 S 15 19 8 10 1014.7 - 0.0
25/07:00pm 29.0 24.0 3.8 20 12.8 S 19 20 10 11 1014.7 - 0.0
25/06:30pm 29.9 25.3 3.8 19 13.3 SW 17 24 9 13 1014.5 - 0.0
25/06:00pm 31.0 25.7 3.1 17 14.2 SSW 20 26 11 14 1014.4 1014.2 0.0
25/05:30pm 31.3 25.9 2.5 16 14.5 S 20 28 11 15 1014.2 - 0.0
25/05:00pm 31.4 26.2 3.4 17 14.3 S 20 30 11 16 1014.2 - 0.0
25/04:30pm 31.3 26.2 4.2 18 14.1 SW 20 30 11 16 1014.4 - 0.0
25/04:00pm 30.9 25.4 3.8 18 13.9 SSW 22 35 12 19 1014.8 - 0.0
25/03:30pm 30.8 26.0 4.5 19 13.7 SSW 19 30 10 16 1015.0 - 0.0
25/03:00pm 29.9 25.5 6.5 23 12.5 SW 19 28 10 15 1015.6 1015.5 0.0
25/02:30pm 29.3 25.8 8.9 28 11.3 SW 17 28 9 15 1016.2 - 0.0
25/02:00pm 27.3 24.2 8.7 31 10.2 SSW 15 24 8 13 1016.4 - 0.0
25/01:30pm 26.6 23.2 9.0 33 9.7 W 17 32 9 17 1016.7 - 0.0
25/01:00pm 25.5 22.5 10.5 39 8.4 SW 17 24 9 13 1017.1 - 0.0
25/12:30pm 24.1 23.0 11.8 46 7.0 WSW 9 15 5 8 1017.5 - 0.0
25/12:00pm 21.8 21.4 12.4 55 5.3 W 6 13 3 7 1018.0 1017.9 0.0
25/11:30am 19.9 19.0 12.7 63 4.1 S 9 13 5 7 1018.4 - 0.0
25/11:00am 18.1 17.7 13.0 72 2.9 SW 7 13 4 7 1018.8 - 0.0
25/10:30am 16.7 16.6 13.2 80 2.0 SSW 6 11 3 6 1019.0 - 0.0
25/10:00am 15.1 14.9 13.0 87 1.2 SW 6 9 3 5 1019.1 - 0.0
25/09:30am 14.4 15.1 13.3 93 0.6 WNW 2 7 1 4 1019.0 - 0.0
25/09:00am 13.9 13.2 13.1 95 0.4 SSE 9 13 5 7 1019.0 1018.9 0.0
25/08:30am 13.7 12.9 12.9 95 0.4 SSE 9 13 5 7 1018.9 - 0.0
25/08:00am 13.3 12.1 12.7 96 0.3 S 11 17 6 9 1018.9 - 0.0
25/07:30am 12.7 11.2 11.9 95 0.4 S 11 15 6 8 1018.6 - 0.0
25/07:00am 12.5 10.6 11.7 95 0.4 SSW 13 17 7 9 1018.4 - 0.0
25/06:30am 12.7 11.6 11.9 95 0.4 SW 9 13 5 7 1018.4 - 0.0
25/06:00am 12.8 12.1 12.0 95 0.4 WNW 7 11 4 6 1018.4 1018.3 0.0
25/05:30am 12.9 11.1 12.0 94 0.5 W 13 15 7 8 1018.2 - 0.0
25/05:00am 12.8 10.9 11.9 94 0.5 W 13 17 7 9 1017.9 - 0.0
25/04:30am 11.9 10.8 10.8 93 0.6 NW 7 9 4 5 1017.3 - 0.0
25/04:00am 9.6 7.8 7.2 85 1.1 NNW 6 7 3 4 1016.9 - 0.0
25/03:30am 10.0 8.3 7.6 85 1.2 NW 6 7 3 4 1016.7 - 0.0
25/03:00am 10.3 9.7 7.2 81 1.5 CALM 0 6 0 3 1016.4 1016.3 0.0
25/02:30am 11.1 10.2 7.6 79 1.7 NW 2 6 1 3 1016.3 - 0.0
25/02:00am 12.3 10.9 9.5 83 1.4 W 7 7 4 4 1016.7 - 0.0
25/01:30am 13.2 13.4 10.4 83 1.5 CALM 0 0 0 0 1016.9 - 0.0
25/01:00am 13.7 12.7 10.9 83 1.5 SW 7 11 4 6 1017.0 - 0.0
25/12:30am 14.6 13.3 11.2 80 1.8 SW 9 11 5 6 1017.1 - 0.0
25/12:00am 15.0 13.0 11.4 79 1.9 SW 13 17 7 9 1017.3 1017.2 0.0
 
Date/Time
CDT
Temp
°C
App
Temp
°C
Dew
Point
Rel
Hum
%
Delta-T
°C
Wind Press
QNH
hPa
Press
MSL
hPa
Rain
since 9 am
mm
Dir
 
Spd
km/h
Gust
km/h
Spd
kts
Gust
kts
24/11:30pm 15.7 14.3 10.9 73 2.6 SW 9 11 5 6 1017.1 - 0.0
24/11:00pm 16.7 15.2 10.5 67 3.3 SW 9 11 5 6 1016.9 - 0.0
24/10:30pm 17.8 15.6 10.7 63 3.8 SW 13 17 7 9 1016.9 - 0.0
24/10:00pm 18.2 16.0 9.5 57 4.6 SW 11 13 6 7 1016.4 - 0.0
24/09:30pm 19.2 16.6 9.4 53 5.2 SW 13 15 7 8 1016.0 - 0.0
24/09:00pm 20.7 18.5 9.3 48 6.1 S 11 17 6 9 1015.6 1015.5 0.0
24/08:30pm 22.2 18.1 8.7 42 7.2 S 20 26 11 14 1015.2 - 0.0
24/08:00pm 23.5 19.0 8.4 38 8.1 SSW 22 30 12 16 1014.8 - 0.0
24/07:30pm 25.5 20.7 8.9 35 9.0 SW 24 33 13 18 1014.2 - 0.0
24/07:00pm 28.0 22.4 5.6 24 11.7 SW 24 32 13 17 1013.6 - 0.0
24/06:30pm 29.9 24.4 7.7 25 12.1 SW 26 32 14 17 1013.1 - 0.0
24/06:00pm 32.2 26.3 5.7 19 14.2 WSW 26 33 14 18 1012.7 1012.5 0.0
24/05:30pm 33.1 27.3 6.4 19 14.5 WSW 26 33 14 18 1012.4 - 0.0
24/05:00pm 33.2 26.5 5.7 18 14.8 WSW 30 37 16 20 1012.0 - 0.0
24/04:30pm 34.2 27.0 4.8 16 15.7 SW 32 43 17 23 1011.8 - 0.0
24/04:00pm 36.5 29.6 4.7 14 17.1 WSW 30 43 16 23 1011.4 - 0.0
24/03:48pm 37.2 30.4 5.3 14 17.4 SW 30 50 16 27 1011.2 - 0.0
24/03:30pm 36.5 31.5 3.7 13 17.4 W 19 30 10 16 1011.3 - 0.0
24/03:00pm 37.5 32.8 3.3 12 18.1 W 17 28 9 15 1011.5 1011.3 0.0
24/02:30pm 37.1 32.0 4.1 13 17.7 WNW 20 32 11 17 1011.9 - 0.0
24/02:00pm 37.1 33.3 4.1 13 17.7 W 13 28 7 15 1012.2 - 0.0
24/01:30pm 35.8 30.9 4.2 14 16.8 WNW 19 28 10 15 1012.5 - 0.0
24/01:00pm 34.6 30.5 4.2 15 16.1 SW 15 24 8 13 1013.0 - 0.0
24/12:30pm 33.6 28.9 3.4 15 15.7 WSW 17 26 9 14 1013.5 - 0.0
24/12:00pm 33.0 27.9 2.9 15 15.4 WNW 19 30 10 16 1013.9 1013.7 0.0
24/11:30am 32.6 29.9 3.5 16 15.0 SSE 7 17 4 9 1014.2 - 0.0
24/11:00am 31.3 29.0 5.7 20 13.6 SW 7 11 4 6 1014.4 - 0.0
24/10:30am 28.6 26.9 6.1 24 11.9 NNW 4 7 2 4 1014.5 - 0.0
24/10:00am 26.9 24.9 6.9 28 10.6 SW 7 17 4 9 1014.6 - 0.0
24/09:30am 24.8 21.5 7.9 34 9.0 SW 15 20 8 11 1014.9 - 0.0
24/09:00am 22.9 20.5 8.6 40 7.6 SSW 11 17 6 9 1014.4 1014.2 0.0
24/08:30am 21.5 17.5 8.4 43 6.9 SSW 19 28 10 15 1014.4 - 0.0
24/08:00am 23.9 19.0 6.7 33 8.9 N 22 30 12 16 1013.1 - 0.0
24/07:30am 22.7 17.5 7.3 37 8.0 N 24 35 13 19 1013.0 - 0.0
24/07:00am 21.7 17.4 7.2 39 7.5 N 19 26 10 14 1012.6 - 0.0
24/06:30am 19.8 17.7 8.2 47 6.0 ENE 9 11 5 6 1012.4 - 0.0
24/06:00am 20.8 18.3 8.1 44 6.6 NE 11 17 6 9 1012.1 1011.9 0.0
24/05:30am 20.0 16.6 9.0 49 5.8 NNE 17 20 9 11 1012.1 - 0.0
24/05:00am 19.6 18.8 9.5 52 5.4 N 4 11 2 6 1012.2 - 0.0
24/04:30am 20.5 16.9 9.7 50 5.8 NNE 19 28 10 15 1012.0 - 0.0
24/04:00am 20.2 16.5 10.0 52 5.5 NNE 20 28 11 15 1011.9 - 0.0
24/03:30am 18.2 15.7 9.8 58 4.5 NE 13 17 7 9 1011.9 - 0.0
24/03:00am 18.5 16.5 10.1 58 4.5 NE 11 17 6 9 1012.1 1011.9 0.0
24/02:30am 18.4 16.5 9.2 55 4.8 NE 9 13 5 7 1012.4 - 0.0
24/02:00am 19.8 18.4 9.4 51 5.5 ENE 7 11 4 6 1013.1 - 0.0
24/01:30am 20.6 18.8 9.5 49 5.9 NE 9 15 5 8 1013.7 - 0.0
24/01:00am 20.7 17.5 9.9 50 5.8 NE 17 20 9 11 1013.6 - 0.0
24/12:30am 19.8 17.6 9.4 51 5.5 NNE 11 15 6 8 1014.4 - 0.0
24/12:00am 19.3 16.8 8.3 49 5.7 NE 11 15 6 8 1014.7 1014.5 0.0
 
Date/Time
CDT
Temp
°C
App
Temp
°C
Dew
Point
Rel
Hum
%
Delta-T
°C
Wind Press
QNH
hPa
Press
MSL
hPa
Rain
since 9 am
mm
Dir
 
Spd
km/h
Gust
km/h
Spd
kts
Gust
kts
23/11:30pm 18.8 17.1 8.2 50 5.5 ENE 7 9 4 5 1015.0 - 0.0
23/11:00pm 18.2 16.9 7.6 50 5.4 E 4 9 2 5 1015.3 - 0.0
23/10:30pm 18.0 17.5 8.0 52 5.1 CALM 0 0 0 0 1015.8 - 0.0
23/10:00pm 17.8 16.2 7.8 52 5.1 ENE 6 9 3 5 1015.4 - 0.0
23/09:30pm 17.6 15.3 7.6 52 5.1 ENE 9 13 5 7 1015.1 - 0.0
23/09:00pm 19.8 19.4 8.2 47 6.0 CALM 0 0 0 0 1015.2 1015.0 0.0
23/08:30pm 21.3 19.2 8.2 43 6.9 S 9 11 5 6 1015.0 - 0.0
23/08:00pm 22.5 20.2 9.0 42 7.2 SW 11 13 6 7 1015.0 - 0.0
23/07:30pm 24.6 21.2 9.0 37 8.5 SSW 17 24 9 13 1014.9 - 0.0
23/07:00pm 26.3 21.1 8.8 33 9.6 SW 26 33 14 18 1014.7 - 0.0
23/06:30pm 27.8 21.1 8.1 29 10.7 SW 33 46 18 25 1014.2 - 0.0
23/06:00pm 29.7 23.3 7.0 24 12.2 SW 30 39 16 21 1013.7 1013.5 0.0
23/05:30pm 31.0 24.7 1.4 15 14.6 WNW 24 32 13 17 1013.5 - 0.0
23/05:00pm 31.7 28.2 3.7 17 14.4 WNW 11 22 6 12 1013.6 - 0.0
23/04:30pm 31.2 25.3 4.1 18 14.0 W 24 32 13 17 1013.5 - 0.0
23/04:00pm 31.6 28.7 4.4 18 14.2 N 9 24 5 13 1013.5 - 0.0
23/03:30pm 30.9 27.2 4.6 19 13.7 W 13 32 7 17 1013.9 - 0.0
23/03:00pm 30.4 26.3 4.2 19 13.5 WNW 15 24 8 13 1014.2 1014.0 0.0
23/02:30pm 29.3 26.1 6.7 24 12.1 S 13 22 7 12 1014.6 - 0.0
23/02:00pm 28.1 26.4 7.4 27 11.1 W 6 15 3 8 1015.1 - 0.0
23/01:30pm 27.5 24.9 7.9 29 10.6 SSW 11 17 6 9 1015.2 - 0.0
23/01:00pm 26.4 24.2 7.9 31 9.9 S 9 17 5 9 1015.7 - 0.0
23/12:30pm 25.5 23.8 8.5 34 9.2 SE 7 13 4 7 1016.4 - 0.0
23/12:00pm 23.4 21.5 9.0 40 7.8 SSE 9 19 5 10 1017.0 1016.9 0.0
23/11:30am 22.7 21.5 10.2 45 6.9 E 7 13 4 7 1017.5 - 0.0
23/11:00am 20.9 18.5 10.1 50 5.9 SE 13 17 7 9 1017.5 - 0.0
23/10:30am 19.9 17.3 10.6 55 5.1 ESE 15 22 8 12 1017.5 - 0.0
23/10:00am 18.5 15.5 10.6 60 4.3 ESE 17 22 9 12 1017.6 - 0.0
23/09:30am 18.0 15.6 11.3 65 3.7 ESE 15 20 8 11 1018.2 - 0.0
23/09:00am 16.4 13.8 10.7 69 3.0 ESE 15 22 8 12 1018.3 1018.2 0.0
23/08:30am 15.7 12.8 11.1 74 2.5 E 17 24 9 13 1018.3 - 0.0
23/08:00am 15.2 12.8 11.4 78 2.0 SE 15 20 8 11 1018.6 - 0.0
23/07:30am 14.7 12.3 11.3 80 1.8 ESE 15 20 8 11 1018.7 - 0.0
23/07:00am 14.7 12.6 11.3 80 1.8 SE 13 17 7 9 1018.6 - 0.0
23/06:30am 14.6 11.8 11.2 80 1.8 ESE 17 22 9 12 1018.4 - 0.0
23/06:00am 15.0 13.0 11.6 80 1.8 ESE 13 20 7 11 1018.3 1018.2 0.0
23/05:30am 15.1 13.6 11.9 81 1.7 SE 11 17 6 9 1018.2 - 0.0
23/05:00am 14.9 12.6 11.9 82 1.6 SE 15 20 8 11 1018.2 - 0.0
23/04:30am 14.7 12.0 11.7 82 1.6 ESE 17 24 9 13 1018.4 - 0.0
23/04:00am 14.5 11.7 11.5 82 1.6 SE 17 24 9 13 1018.4 - 0.0
23/03:30am 14.5 12.2 11.6 83 1.6 SE 15 20 8 11 1018.7 - 0.0
23/03:00am 14.4 12.5 11.7 84 1.5 SE 13 17 7 9 1019.1 1019.0 0.0
23/02:30am 14.1 11.8 11.6 85 1.3 SE 15 20 8 11 1019.5 - 0.0
23/02:00am 14.0 11.7 11.7 86 1.2 SE 15 24 8 13 1019.6 - 0.0
23/01:30am 13.8 11.4 11.5 86 1.2 SE 15 22 8 12 1019.8 - 0.0
23/01:00am 13.0 11.2 10.9 87 1.1 SE 11 15 6 8 1020.4 - 0.0
23/12:30am 13.1 11.2 10.5 84 1.4 SE 11 15 6 8 1020.4 - 0.0
23/12:00am 13.5 11.7 10.7 83 1.5 SSE 11 15 6 8 1020.5 1020.3 0.0
 
Date/Time
CDT
Temp
°C
App
Temp
°C
Dew
Point
Rel
Hum
%
Delta-T
°C
Wind Press
QNH
hPa
Press
MSL
hPa
Rain
since 9 am
mm
Dir
 
Spd
km/h
Gust
km/h
Spd
kts
Gust
kts
22/11:30pm 13.1 11.9 10.3 83 1.5 S 7 9 4 5 1020.7 - 0.0
22/11:00pm 13.8 12.4 10.8 82 1.6 S 9 13 5 7 1020.8 - 0.0
22/10:30pm 14.8 13.2 11.4 80 1.8 S 11 15 6 8 1020.9 - 0.0
22/10:00pm 15.4 13.8 11.6 78 2.1 S 11 15 6 8 1020.8 - 0.0

Other Formats:

Comma delimited format used in spreadsheet applications
http://www.bom.gov.au/fwo/IDS60801/IDS60801.95654.axf

JavaScript Object Notation format (JSON) in row-major order
http://www.bom.gov.au/fwo/IDS60801/IDS60801.95654.json